createdAt,value
2023-04-20T00:00:11.541Z,4.80
2023-04-20T00:02:42.279Z,4.03
2023-04-20T00:05:10.602Z,5.07
2023-04-20T00:07:38.635Z,4.83
2023-04-20T00:10:09.177Z,4.43
2023-04-20T00:12:36.393Z,4.40
2023-04-20T00:15:03.918Z,4.03
2023-04-20T00:17:31.201Z,4.77
2023-04-20T00:19:58.434Z,5.13
2023-04-20T00:22:26.373Z,3.73
2023-04-20T00:24:53.493Z,4.10
2023-04-20T00:27:20.530Z,7.13
2023-04-20T00:29:47.650Z,3.13
2023-04-20T00:32:14.849Z,3.23
2023-04-20T00:34:41.946Z,2.93
2023-04-20T00:37:09.013Z,2.50
2023-04-20T00:39:36.185Z,3.47
2023-04-20T00:42:08.372Z,3.93
2023-04-20T00:44:36.049Z,2.93
2023-04-20T00:47:03.160Z,4.03
2023-04-20T00:49:31.915Z,3.60
2023-04-20T00:52:01.013Z,4.20
2023-04-20T00:54:30.099Z,3.33
2023-04-20T00:56:58.685Z,3.97
2023-04-20T00:59:25.914Z,4.77
2023-04-20T01:01:53.309Z,4.33
2023-04-20T01:04:22.417Z,4.63
2023-04-20T01:06:50.880Z,4.60
2023-04-20T01:09:18.261Z,5.97
2023-04-20T01:11:45.543Z,4.23
2023-04-20T01:14:16.732Z,5.30
2023-04-20T01:16:45.030Z,5.57
2023-04-20T01:19:13.446Z,5.40
2023-04-20T01:21:41.441Z,5.67
2023-04-20T01:24:09.007Z,6.47
2023-04-20T01:26:36.151Z,5.47
2023-04-20T01:29:03.336Z,7.87
2023-04-20T01:31:31.226Z,9.37
2023-04-20T01:33:58.785Z,7.87
2023-04-20T01:36:25.848Z,9.13
2023-04-20T01:38:53.195Z,9.07
2023-04-20T01:41:21.627Z,8.27
2023-04-20T01:43:49.142Z,10.63
2023-04-20T01:46:16.332Z,10.53
2023-04-20T01:48:43.446Z,10.83
2023-04-20T01:51:10.917Z,10.33
2023-04-20T01:53:39.532Z,11.60
2023-04-20T01:56:07.951Z,11.83
2023-04-20T01:58:35.743Z,11.63
2023-04-20T02:01:03.304Z,10.40
2023-04-20T02:03:31.036Z,12.73
2023-04-20T02:05:58.302Z,10.60
2023-04-20T02:08:29.986Z,12.30
2023-04-20T02:10:57.034Z,8.70
2023-04-20T02:13:24.256Z,9.60
2023-04-20T02:15:51.645Z,12.00
2023-04-20T02:18:18.720Z,13.37
2023-04-20T02:20:46.310Z,12.50
2023-04-20T02:23:13.539Z,11.93
2023-04-20T02:25:41.080Z,14.10
2023-04-20T02:28:08.197Z,10.07
2023-04-20T02:30:38.782Z,10.57
2023-04-20T02:33:05.905Z,13.37
2023-04-20T02:35:33.082Z,12.30
2023-04-20T02:38:00.169Z,11.20
2023-04-20T02:40:27.273Z,11.50
2023-04-20T02:42:54.393Z,14.20
2023-04-20T02:45:21.593Z,12.63
2023-04-20T02:47:49.082Z,10.53
2023-04-20T02:50:16.588Z,11.33
2023-04-20T02:53:00.982Z,13.80
2023-04-20T02:55:28.936Z,13.93
2023-04-20T02:58:00.579Z,13.60
2023-04-20T03:00:44.384Z,14.87
2023-04-20T03:03:11.631Z,12.83
2023-04-20T03:05:39.291Z,12.93
2023-04-20T03:08:07.301Z,22.03
2023-04-20T03:10:34.582Z,11.83
2023-04-20T03:13:17.446Z,14.27
2023-04-20T03:15:56.853Z,12.40
2023-04-20T03:18:46.250Z,11.50
2023-04-20T03:21:14.544Z,12.30
2023-04-20T03:23:41.672Z,11.63
2023-04-20T03:26:09.117Z,12.80
2023-04-20T03:29:02.498Z,11.90
2023-04-20T03:31:30.391Z,13.00
2023-04-20T03:33:58.328Z,11.80
2023-04-20T03:36:25.443Z,12.40
2023-04-20T03:38:52.616Z,12.80
2023-04-20T03:41:20.532Z,14.30
2023-04-20T03:43:47.635Z,15.23
2023-04-20T03:46:14.870Z,23.00
2023-04-20T03:48:42.100Z,16.40
2023-04-20T03:51:09.352Z,20.20
2023-04-20T03:53:39.669Z,14.13
2023-04-20T03:56:08.039Z,17.90
2023-04-20T03:58:35.249Z,19.33
2023-04-20T04:01:18.682Z,15.90
2023-04-20T04:03:48.879Z,15.37
2023-04-20T04:06:17.348Z,17.70
2023-04-20T04:08:44.482Z,15.80
2023-04-20T04:11:11.617Z,16.50
2023-04-20T04:13:39.088Z,17.60
2023-04-20T04:16:09.129Z,16.37
2023-04-20T04:18:36.669Z,18.03
2023-04-20T04:21:10.432Z,16.60
2023-04-20T04:23:42.401Z,16.77
2023-04-20T04:26:38.920Z,19.30
2023-04-20T04:29:06.541Z,17.93
2023-04-20T04:31:35.083Z,14.90
2023-04-20T04:34:08.990Z,19.10
2023-04-20T04:36:44.096Z,16.67
2023-04-20T04:39:13.982Z,17.30
2023-04-20T04:41:48.738Z,15.23
2023-04-20T04:44:31.859Z,15.63
2023-04-20T04:47:02.972Z,16.37
2023-04-20T04:49:30.908Z,15.10
2023-04-20T04:51:58.033Z,16.33
2023-04-20T04:54:25.168Z,16.53
2023-04-20T04:56:52.219Z,18.40
2023-04-20T04:59:19.416Z,16.37
2023-04-20T05:01:46.602Z,16.13
2023-04-20T05:04:13.916Z,17.10
2023-04-20T05:06:41.157Z,17.80
2023-04-20T05:09:08.245Z,18.30
2023-04-20T05:11:35.505Z,16.33
2023-04-20T05:14:03.572Z,17.30
2023-04-20T05:16:30.780Z,19.40
2023-04-20T05:18:57.973Z,19.60
2023-04-20T05:21:25.061Z,19.90
2023-04-20T05:23:52.217Z,18.40
2023-04-20T05:26:19.289Z,21.07
2023-04-20T05:28:46.400Z,20.10
2023-04-20T05:31:13.548Z,24.07
2023-04-20T05:33:41.125Z,19.83
2023-04-20T05:36:11.414Z,21.50
2023-04-20T05:38:39.819Z,24.60
2023-04-20T05:41:07.011Z,19.43
2023-04-20T05:43:34.145Z,19.23
2023-04-20T05:46:01.275Z,17.37
2023-04-20T05:48:29.998Z,20.07
2023-04-20T05:50:58.301Z,18.93
2023-04-20T05:53:26.264Z,23.37
2023-04-20T05:55:53.399Z,25.87
2023-04-20T05:58:20.601Z,22.73
2023-04-20T06:00:47.808Z,19.83
2023-04-20T06:03:15.365Z,20.43
2023-04-20T06:05:42.794Z,18.20
2023-04-20T06:08:10.104Z,19.90
2023-04-20T06:10:37.375Z,16.90
2023-04-20T06:13:04.597Z,16.07
2023-04-20T06:15:31.852Z,17.03
2023-04-20T06:17:59.063Z,17.23
2023-04-20T06:20:26.296Z,14.67
2023-04-20T06:22:53.607Z,18.43
2023-04-20T06:25:20.739Z,17.13
2023-04-20T06:30:16.219Z,17.93
2023-04-20T06:32:43.346Z,16.70
2023-04-20T06:35:10.714Z,17.93
2023-04-20T06:37:38.119Z,18.83
2023-04-20T06:40:09.656Z,17.13
2023-04-20T06:42:40.107Z,18.97
2023-04-20T06:45:08.662Z,17.73
2023-04-20T06:47:36.159Z,25.37
2023-04-20T06:50:09.274Z,18.40
2023-04-20T06:52:41.276Z,16.13
2023-04-20T06:55:09.184Z,18.60
2023-04-20T06:57:38.595Z,16.07
2023-04-20T07:00:11.727Z,17.13
2023-04-20T07:02:51.766Z,15.73
2023-04-20T07:05:19.591Z,16.27
2023-04-20T07:07:46.865Z,18.87
2023-04-20T07:10:15.336Z,17.70
2023-04-20T07:12:43.983Z,18.70
2023-04-20T07:15:12.972Z,24.43
2023-04-20T07:17:40.777Z,22.53
2023-04-20T07:20:09.357Z,18.90
2023-04-20T07:22:38.441Z,19.23
2023-04-20T07:25:08.729Z,19.40
2023-04-20T07:27:41.030Z,18.07
2023-04-20T07:30:10.729Z,17.00
2023-04-20T07:32:40.881Z,18.07
2023-04-20T07:35:09.363Z,16.90
2023-04-20T07:37:36.533Z,16.37
2023-04-20T07:40:07.100Z,13.33
2023-04-20T07:42:36.995Z,16.70
2023-04-20T07:45:08.016Z,17.17
2023-04-20T07:47:35.956Z,15.80
2023-04-20T07:50:05.144Z,16.07
2023-04-20T07:52:32.280Z,15.30
2023-04-20T07:54:59.894Z,13.40
2023-04-20T07:57:28.848Z,17.40
2023-04-20T07:59:56.157Z,17.73
2023-04-20T08:02:23.406Z,15.77
2023-04-20T08:04:50.771Z,15.93
2023-04-20T08:07:18.130Z,18.00
2023-04-20T08:09:45.407Z,15.73
2023-04-20T08:12:12.493Z,18.50
2023-04-20T08:14:41.321Z,19.13
2023-04-20T08:17:08.610Z,17.90
2023-04-20T08:19:36.307Z,18.30
2023-04-20T08:22:06.118Z,19.33
2023-04-20T08:24:33.254Z,15.60
2023-04-20T08:27:00.716Z,16.97
2023-04-20T08:29:27.882Z,18.20
2023-04-20T08:31:55.134Z,17.63
2023-04-20T08:34:22.340Z,16.70
2023-04-20T08:36:49.640Z,22.57
2023-04-20T08:39:24.032Z,18.67
2023-04-20T08:41:54.004Z,17.87
2023-04-20T08:44:21.783Z,19.33
2023-04-20T08:46:50.303Z,19.83
2023-04-20T08:49:20.069Z,18.70
2023-04-20T08:51:48.365Z,18.80
2023-04-20T08:54:16.711Z,16.37
2023-04-20T08:56:46.917Z,15.33
2023-04-20T08:59:15.672Z,18.37
2023-04-20T09:01:44.462Z,16.70
2023-04-20T09:04:28.915Z,16.40
2023-04-20T09:06:56.826Z,15.70
2023-04-20T09:09:27.985Z,16.70
2023-04-20T09:12:07.411Z,16.43
2023-04-20T09:14:46.059Z,15.47
2023-04-20T09:17:15.282Z,21.30
2023-04-20T09:19:45.935Z,18.17
2023-04-20T09:22:13.562Z,18.90
2023-04-20T09:24:42.313Z,16.40
2023-04-20T09:27:18.086Z,17.93
2023-04-20T09:30:01.482Z,18.37
2023-04-20T09:32:29.427Z,17.73
2023-04-20T09:34:57.216Z,17.80
2023-04-20T09:37:25.609Z,18.20
2023-04-20T09:40:00.046Z,19.20
2023-04-20T09:42:28.934Z,18.80
2023-04-20T09:44:57.515Z,19.50
2023-04-20T09:47:26.844Z,19.80
2023-04-20T09:49:54.896Z,20.97
2023-04-20T09:52:23.454Z,20.47
2023-04-20T09:54:51.904Z,20.37
2023-04-20T09:57:19.899Z,16.70
2023-04-20T09:59:47.714Z,19.80
2023-04-20T10:02:15.293Z,20.20
2023-04-20T10:04:57.889Z,20.57
2023-04-20T10:07:27.223Z,18.83
2023-04-20T10:10:05.165Z,21.00
2023-04-20T10:12:32.923Z,21.73
2023-04-20T10:15:01.347Z,22.20
2023-04-20T10:17:33.447Z,19.13
2023-04-20T10:20:00.693Z,18.30
2023-04-20T10:22:34.632Z,21.40
2023-04-20T10:25:14.948Z,22.27
2023-04-20T10:27:57.046Z,24.40
2023-04-20T10:30:26.880Z,27.10
2023-04-20T10:33:23.476Z,19.67
2023-04-20T10:35:55.048Z,23.63
2023-04-20T10:38:34.946Z,22.00
2023-04-20T10:41:13.224Z,22.23
2023-04-20T10:43:43.695Z,36.20
2023-04-20T10:46:22.785Z,23.10
2023-04-20T10:49:01.686Z,25.70
2023-04-20T10:51:29.619Z,25.50
2023-04-20T10:54:07.858Z,24.57
2023-04-20T10:56:47.628Z,23.33
2023-04-20T10:59:23.500Z,20.80
2023-04-20T11:01:52.312Z,23.33
2023-04-20T11:04:30.434Z,21.17
2023-04-20T11:07:10.001Z,24.17
2023-04-20T11:09:42.401Z,23.63
2023-04-20T11:12:14.965Z,24.23
2023-04-20T11:14:53.447Z,25.47
2023-04-20T11:17:21.644Z,23.83
2023-04-20T11:19:48.807Z,25.43
2023-04-20T11:22:23.669Z,31.77
2023-04-20T11:24:50.848Z,22.07
2023-04-20T11:27:24.814Z,23.23
2023-04-20T11:29:59.779Z,23.87
2023-04-20T11:32:27.633Z,24.17
2023-04-20T11:35:11.008Z,24.27
2023-04-20T11:37:51.907Z,27.93
2023-04-20T11:40:19.299Z,27.93
2023-04-20T11:42:46.596Z,28.80
2023-04-20T11:45:13.920Z,24.60
2023-04-20T11:47:41.328Z,26.03
2023-04-20T11:50:10.402Z,24.53
2023-04-20T11:52:37.657Z,23.40
2023-04-20T11:55:06.042Z,23.17
2023-04-20T11:57:34.618Z,21.17
2023-04-20T12:00:02.021Z,24.07
2023-04-20T12:02:41.497Z,23.80
2023-04-20T12:05:09.747Z,21.80
2023-04-20T12:07:37.159Z,21.43
2023-04-20T12:10:05.152Z,23.40
2023-04-20T12:12:32.248Z,21.37
2023-04-20T12:14:59.455Z,23.27
2023-04-20T12:17:26.889Z,24.20
2023-04-20T12:19:54.402Z,24.37
2023-04-20T12:22:21.508Z,25.90
2023-04-20T12:24:48.554Z,25.13
2023-04-20T12:27:15.700Z,27.60
2023-04-20T12:29:42.762Z,27.67
2023-04-20T12:32:09.935Z,25.67
2023-04-20T12:34:37.046Z,30.80
2023-04-20T12:37:04.208Z,27.60
2023-04-20T12:39:31.326Z,28.08
2023-04-20T12:41:58.622Z,26.13
2023-04-20T12:44:26.141Z,30.83
2023-04-20T12:46:53.327Z,29.00
2023-04-20T12:49:21.003Z,28.07
2023-04-20T12:51:48.218Z,31.27
2023-04-20T12:54:15.565Z,25.97
2023-04-20T12:56:42.755Z,28.63
2023-04-20T12:59:10.556Z,27.97
2023-04-20T13:01:37.681Z,27.23
2023-04-20T13:04:05.015Z,28.40
2023-04-20T13:06:32.861Z,29.63
2023-04-20T13:09:01.468Z,24.57
2023-04-20T13:11:30.168Z,26.90
2023-04-20T13:13:58.165Z,26.57
2023-04-20T13:16:25.663Z,25.90
2023-04-20T13:18:53.121Z,24.23
2023-04-20T13:21:20.219Z,25.77
2023-04-20T13:23:47.425Z,24.57
2023-04-20T13:26:14.635Z,30.43
2023-04-20T13:28:41.832Z,23.30
2023-04-20T13:31:09.118Z,23.50
2023-04-20T13:33:36.492Z,23.33
2023-04-20T13:36:03.952Z,24.40
2023-04-20T13:38:31.145Z,23.33
2023-04-20T13:40:58.256Z,27.90
2023-04-20T13:43:26.065Z,22.70
2023-04-20T13:45:53.315Z,22.13
2023-04-20T13:48:21.441Z,21.97
2023-04-20T13:50:48.652Z,25.40
2023-04-20T13:53:15.782Z,22.97
2023-04-20T13:55:43.253Z,23.90
2023-04-20T13:58:10.395Z,25.40
2023-04-20T14:00:37.550Z,23.37
2023-04-20T14:03:06.208Z,20.20
2023-04-20T14:05:33.382Z,19.80
2023-04-20T14:08:01.805Z,22.20
2023-04-20T14:10:29.530Z,24.10
2023-04-20T14:12:57.396Z,19.47
2023-04-20T14:15:24.751Z,18.70
2023-04-20T14:17:53.019Z,18.63
2023-04-20T14:20:20.600Z,20.13
2023-04-20T14:22:47.793Z,21.63
2023-04-20T14:25:15.074Z,18.63
2023-04-20T14:27:42.314Z,19.43
2023-04-20T14:30:10.857Z,20.23
2023-04-20T14:32:38.568Z,17.23
2023-04-20T14:35:06.245Z,19.90
2023-04-20T14:37:33.453Z,17.70
2023-04-20T14:40:00.580Z,19.73
2023-04-20T14:42:27.709Z,21.30
2023-04-20T14:44:55.290Z,19.37
2023-04-20T14:47:22.590Z,18.13
2023-04-20T14:49:49.989Z,18.90
2023-04-20T14:52:17.365Z,19.93
2023-04-20T14:54:44.615Z,16.73
2023-04-20T14:57:12.035Z,18.27
2023-04-20T14:59:41.414Z,18.70
2023-04-20T15:02:09.048Z,26.27
2023-04-20T15:04:36.842Z,18.40
2023-04-20T15:07:04.256Z,18.00
2023-04-20T15:09:32.770Z,20.83
2023-04-20T15:11:59.912Z,23.13
2023-04-20T15:14:27.192Z,22.57
2023-04-20T15:16:55.074Z,16.47
2023-04-20T15:19:25.368Z,18.83
2023-04-20T15:21:52.528Z,21.40
2023-04-20T15:24:19.952Z,18.60
2023-04-20T15:26:47.298Z,19.10
2023-04-20T15:29:14.483Z,21.40
2023-04-20T15:31:43.444Z,19.53
2023-04-20T15:34:11.424Z,20.07
2023-04-20T15:36:38.704Z,19.00
2023-04-20T15:39:05.987Z,18.67
2023-04-20T15:41:33.224Z,18.33
2023-04-20T15:44:03.525Z,18.87
2023-04-20T15:46:37.750Z,21.80
2023-04-20T15:49:05.134Z,18.80
2023-04-20T15:51:32.347Z,20.47
2023-04-20T15:54:05.413Z,22.30
2023-04-20T15:56:32.874Z,20.07
2023-04-20T15:59:00.633Z,22.80
2023-04-20T16:01:27.863Z,28.70
2023-04-20T16:03:55.475Z,21.93
2023-04-20T16:06:22.779Z,20.40
2023-04-20T16:08:53.917Z,23.10
2023-04-20T16:11:22.053Z,18.37
2023-04-20T16:13:50.028Z,19.37
2023-04-20T16:16:17.425Z,21.70
2023-04-20T16:18:44.542Z,19.90
2023-04-20T16:21:11.834Z,18.97
2023-04-20T16:23:39.147Z,20.97
2023-04-20T16:26:08.549Z,22.73
2023-04-20T16:28:36.119Z,17.63
2023-04-20T16:31:03.685Z,19.80
2023-04-20T16:33:32.233Z,19.83
2023-04-20T16:36:00.468Z,19.87
2023-04-20T16:38:27.786Z,23.93
2023-04-20T16:40:55.237Z,23.27
2023-04-20T16:43:22.422Z,23.70
2023-04-20T16:45:49.629Z,20.77
2023-04-20T16:48:16.887Z,30.83
2023-04-20T16:50:44.617Z,19.20
2023-04-20T16:53:11.809Z,19.97
2023-04-20T16:55:38.921Z,17.13
2023-04-20T16:58:06.572Z,17.50
2023-04-20T17:00:34.281Z,17.13
2023-04-20T17:03:03.568Z,19.10
2023-04-20T17:05:30.997Z,18.70
2023-04-20T17:07:58.199Z,19.00
2023-04-20T17:10:25.508Z,20.70
2023-04-20T17:12:52.726Z,25.43
2023-04-20T17:15:20.052Z,21.07
2023-04-20T17:17:47.335Z,18.67
2023-04-20T17:20:14.688Z,20.77
2023-04-20T17:22:42.086Z,20.83
2023-04-20T17:25:09.826Z,17.40
2023-04-20T17:27:37.024Z,22.30
2023-04-20T17:30:05.721Z,15.70
2023-04-20T17:32:33.459Z,17.20
2023-04-20T17:35:00.696Z,19.03
2023-04-20T17:37:28.157Z,19.17
2023-04-20T17:39:55.945Z,19.23
2023-04-20T17:42:23.439Z,18.60
2023-04-20T17:44:51.455Z,26.83
2023-04-20T17:47:18.684Z,18.23
2023-04-20T17:49:45.940Z,20.50
2023-04-20T17:52:17.857Z,29.23
2023-04-20T17:54:46.394Z,21.33
2023-04-20T17:57:14.313Z,23.80
2023-04-20T17:59:42.636Z,19.50
2023-04-20T18:02:10.001Z,22.77
2023-04-20T18:04:37.585Z,24.60
2023-04-20T18:07:05.712Z,21.50
2023-04-20T18:09:32.882Z,24.47
2023-04-20T18:12:00.070Z,22.57
2023-04-20T18:14:27.536Z,23.47
2023-04-20T18:16:55.256Z,24.30
2023-04-20T18:19:22.750Z,30.70
2023-04-20T18:21:50.026Z,26.37
2023-04-20T18:24:17.817Z,26.07
2023-04-20T18:26:45.203Z,27.30
2023-04-20T18:29:12.422Z,21.00
2023-04-20T18:31:39.851Z,25.00
2023-04-20T18:34:07.672Z,26.33
2023-04-20T18:36:35.034Z,29.87
2023-04-20T18:39:02.308Z,30.03
2023-04-20T18:41:29.903Z,31.30
2023-04-20T18:43:57.231Z,28.67
2023-04-20T18:46:25.746Z,31.47
2023-04-20T18:48:53.123Z,39.80
2023-04-20T18:51:20.492Z,26.90
2023-04-20T18:53:47.737Z,28.37
2023-04-20T18:56:14.907Z,31.37
2023-04-20T18:58:42.055Z,27.23
2023-04-20T19:01:09.313Z,28.13
2023-04-20T19:03:36.576Z,36.07
2023-04-20T19:06:04.066Z,31.13
2023-04-20T19:08:32.326Z,31.27
2023-04-20T19:11:00.573Z,43.17
2023-04-20T19:13:27.691Z,33.20
2023-04-20T19:15:57.750Z,29.53
2023-04-20T19:18:28.026Z,34.00
2023-04-20T19:20:55.203Z,32.93
2023-04-20T19:23:22.256Z,32.40
2023-04-20T19:25:52.623Z,35.10
2023-04-20T19:28:20.554Z,30.93
2023-04-20T19:30:48.842Z,40.27
2023-04-20T19:33:15.921Z,31.83
2023-04-20T19:35:43.556Z,32.23
2023-04-20T19:38:10.758Z,28.90
2023-04-20T19:40:37.820Z,32.80
2023-04-20T19:43:04.847Z,32.77
2023-04-20T19:45:32.137Z,30.07
2023-04-20T19:47:59.265Z,28.50
2023-04-20T19:50:26.858Z,28.13
2023-04-20T19:52:54.041Z,29.80
2023-04-20T19:55:24.550Z,28.63
2023-04-20T19:57:51.820Z,30.77
2023-04-20T20:00:19.028Z,43.37
2023-04-20T20:02:46.391Z,36.20
2023-04-20T20:05:13.674Z,33.47
2023-04-20T20:07:41.928Z,32.50
2023-04-20T20:10:10.122Z,37.57
2023-04-20T20:12:37.311Z,30.47
2023-04-20T20:15:04.926Z,31.37
2023-04-20T20:17:32.241Z,30.50
2023-04-20T20:20:00.305Z,32.63
2023-04-20T20:22:27.525Z,36.93
2023-04-20T20:24:54.751Z,31.10
2023-04-20T20:27:21.951Z,37.87
2023-04-20T20:29:49.305Z,33.27
2023-04-20T20:32:16.478Z,33.63
2023-04-20T20:34:43.570Z,36.10
2023-04-20T20:37:10.728Z,25.90
2023-04-20T20:39:37.902Z,29.30
2023-04-20T20:42:06.425Z,30.90
2023-04-20T20:44:39.041Z,38.93
2023-04-20T20:47:06.925Z,37.63
2023-04-20T20:49:34.143Z,29.30
2023-04-20T20:52:02.448Z,31.90
2023-04-20T20:54:29.714Z,29.13
2023-04-20T20:56:57.727Z,29.17
2023-04-20T20:59:25.018Z,30.33
2023-04-20T21:01:52.231Z,31.23
2023-04-20T21:04:19.620Z,27.57
2023-04-20T21:06:47.879Z,27.60
2023-04-20T21:09:15.498Z,33.13
2023-04-20T21:11:42.597Z,29.77
2023-04-20T21:14:09.722Z,27.77
2023-04-20T21:16:36.903Z,28.17
2023-04-20T21:19:04.109Z,28.40
2023-04-20T21:21:32.821Z,31.37
2023-04-20T21:24:00.020Z,29.00
2023-04-20T21:26:27.189Z,32.83
2023-04-20T21:28:54.336Z,33.83
2023-04-20T21:31:21.443Z,35.90
2023-04-20T21:33:48.659Z,34.60
2023-04-20T21:36:15.797Z,43.13
2023-04-20T21:38:43.236Z,48.00
2023-04-20T21:41:10.424Z,46.10
2023-04-20T21:43:37.534Z,57.10
2023-04-20T21:46:04.827Z,53.70
2023-04-20T21:48:31.977Z,45.43
2023-04-20T21:50:59.046Z,44.13
2023-04-20T21:53:26.157Z,46.70
2023-04-20T21:55:53.216Z,41.87
2023-04-20T21:58:20.453Z,47.73
2023-04-20T22:00:47.682Z,41.47
2023-04-20T22:03:15.051Z,40.23
2023-04-20T22:05:42.469Z,35.63
2023-04-20T22:08:09.657Z,45.10
2023-04-20T22:10:36.747Z,33.77
2023-04-20T22:13:03.878Z,35.80
2023-04-20T22:15:31.146Z,33.50
2023-04-20T22:18:01.648Z,32.87
2023-04-20T22:20:28.986Z,35.63
2023-04-20T22:22:56.189Z,36.40
2023-04-20T22:25:24.771Z,39.23
2023-04-20T22:27:51.982Z,37.60
2023-04-20T22:30:19.062Z,31.93
2023-04-20T22:32:46.326Z,33.80
2023-04-20T22:35:13.780Z,33.50
2023-04-20T22:37:41.195Z,53.33
2023-04-20T22:40:09.652Z,33.83
2023-04-20T22:42:36.865Z,37.90
2023-04-20T22:45:05.353Z,35.40
2023-04-20T22:47:32.683Z,42.67
2023-04-20T22:49:59.798Z,37.87
2023-04-20T22:52:26.885Z,34.93
2023-04-20T22:54:54.013Z,36.30
2023-04-20T22:57:21.405Z,39.87
2023-04-20T22:59:51.609Z,34.70
2023-04-20T23:02:18.876Z,36.23
2023-04-20T23:04:46.088Z,33.70
2023-04-20T23:07:13.756Z,34.20
2023-04-20T23:09:42.231Z,41.17
2023-04-20T23:12:10.399Z,40.00
2023-04-20T23:14:39.314Z,39.10
2023-04-20T23:17:06.898Z,39.90
2023-04-20T23:19:34.337Z,47.43
2023-04-20T23:22:03.071Z,38.83
2023-04-20T23:24:30.551Z,36.77
2023-04-20T23:26:58.269Z,38.20
2023-04-20T23:29:25.482Z,38.30
2023-04-20T23:31:52.773Z,38.53
2023-04-20T23:34:20.204Z,39.33
2023-04-20T23:36:47.901Z,36.20
2023-04-20T23:39:15.106Z,42.60
2023-04-20T23:41:42.252Z,42.43
2023-04-20T23:44:09.527Z,40.67
2023-04-20T23:46:36.774Z,44.70
2023-04-20T23:49:04.070Z,41.13
2023-04-20T23:51:31.665Z,39.37
2023-04-20T23:53:59.007Z,38.47
2023-04-20T23:56:26.392Z,35.40
2023-04-20T23:58:53.527Z,40.00
